SWA1914 KDEN-KLAX
Flight info
| Callsign | SWA1914 |
|---|---|
| Flight time | 1h 54m |
| Altitude | 38000 |
| Route | BAYLR6 TEHRU JASSE Q90 DNERO ANJLL4 |
| Aircraft | B38M/M-SDE1FGHILORVWXY/HB1 |
Departure
| Time | 2026-04-21 04:56 |
|---|---|
| Airport | Denver International Airport (KDEN) |
Arrival
| Time | 2026-04-21 06:50 |
|---|---|
| Airport | Los Angeles International Airport (KLAX) |
| Time | Latitude | Longitude | Altitude | Speed | Heading |
|---|---|---|---|---|---|
| 2026-04-21 04:27 | 39.86359 | -104.67309 | 5379 ft | 0 kts | 180° |
| 2026-04-21 04:46 | 39.86371 | -104.67308 | 5378 ft | 4 kts | 180° |
| 2026-04-21 04:46 | 39.86398 | -104.67308 | 5377 ft | 4 kts | 180° |
| 2026-04-21 04:46 | 39.86404 | -104.67308 | 5377 ft | 0 kts | 180° |
| 2026-04-21 04:50 | 39.86402 | -104.67306 | 5377 ft | 0 kts | 153° |
| 2026-04-21 04:50 | 39.86402 | -104.67299 | 5377 ft | 1 kts | 88° |
| 2026-04-21 04:50 | 39.86413 | -104.67289 | 5376 ft | 5 kts | 39° |
| 2026-04-21 04:51 | 39.86456 | -104.67247 | 5375 ft | 10 kts | 46° |
| 2026-04-21 04:51 | 39.86505 | -104.67166 | 5377 ft | 15 kts | 58° |
| 2026-04-21 04:51 | 39.86540 | -104.67000 | 5375 ft | 22 kts | 93° |
| 2026-04-21 04:51 | 39.86539 | -104.66802 | 5377 ft | 23 kts | 90° |
| 2026-04-21 04:52 | 39.86533 | -104.66589 | 5379 ft | 24 kts | 107° |
| 2026-04-21 04:52 | 39.86502 | -104.66395 | 5381 ft | 21 kts | 91° |
| 2026-04-21 04:52 | 39.86499 | -104.66204 | 5384 ft | 20 kts | 91° |
| 2026-04-21 04:52 | 39.86497 | -104.66020 | 5383 ft | 22 kts | 91° |
| 2026-04-21 04:53 | 39.86496 | -104.65786 | 5377 ft | 30 kts | 90° |
| 2026-04-21 04:53 | 39.86494 | -104.65479 | 5371 ft | 35 kts | 90° |
| 2026-04-21 04:53 | 39.86492 | -104.65201 | 5365 ft | 29 kts | 90° |
| 2026-04-21 04:53 | 39.86490 | -104.64946 | 5360 ft | 29 kts | 90° |
| 2026-04-21 04:54 | 39.86488 | -104.64672 | 5354 ft | 31 kts | 91° |
| 2026-04-21 04:54 | 39.86487 | -104.64418 | 5349 ft | 29 kts | 90° |
| 2026-04-21 04:54 | 39.86478 | -104.64167 | 5347 ft | 21 kts | 117° |
| 2026-04-21 04:54 | 39.86362 | -104.64124 | 5350 ft | 31 kts | 181° |
| 2026-04-21 04:55 | 39.85950 | -104.64134 | 5352 ft | 86 kts | 180° |
| 2026-04-21 04:55 | 39.85196 | -104.64153 | 5361 ft | 130 kts | 181° |
| 2026-04-21 04:55 | 39.84168 | -104.64158 | 5395 ft | 161 kts | 179° |
| 2026-04-21 04:55 | 39.83011 | -104.64169 | 5769 ft | 165 kts | 179° |
| 2026-04-21 04:56 | 39.81900 | -104.64271 | 6417 ft | 160 kts | 184° |
| 2026-04-21 04:56 | 39.80737 | -104.64501 | 6560 ft | 182 kts | 194° |
| 2026-04-21 04:56 | 39.79600 | -104.65388 | 6723 ft | 201 kts | 226° |
| 2026-04-21 04:56 | 39.78821 | -104.66882 | 7296 ft | 198 kts | 245° |
| 2026-04-21 04:57 | 39.78328 | -104.68689 | 7573 ft | 226 kts | 250° |
| 2026-04-21 04:57 | 39.77832 | -104.70699 | 7994 ft | 244 kts | 251° |
| 2026-04-21 04:57 | 39.77294 | -104.72892 | 8411 ft | 264 kts | 252° |
| 2026-04-21 04:57 | 39.76719 | -104.75256 | 8850 ft | 283 kts | 252° |
| 2026-04-21 04:58 | 39.76112 | -104.77752 | 9421 ft | 294 kts | 252° |
| 2026-04-21 04:58 | 39.75498 | -104.80280 | 10286 ft | 295 kts | 253° |
| 2026-04-21 04:58 | 39.74862 | -104.82889 | 10779 ft | 310 kts | 253° |
| 2026-04-21 04:58 | 39.74199 | -104.85609 | 11352 ft | 321 kts | 253° |
| 2026-04-21 04:59 | 39.73532 | -104.88342 | 12214 ft | 321 kts | 253° |
| 2026-04-21 04:59 | 39.72852 | -104.91127 | 13019 ft | 326 kts | 253° |
| 2026-04-21 04:59 | 39.72159 | -104.93967 | 13806 ft | 332 kts | 253° |
| 2026-04-21 04:59 | 39.71452 | -104.96854 | 14500 ft | 337 kts | 253° |
| 2026-04-21 05:00 | 39.70741 | -104.99760 | 15362 ft | 339 kts | 252° |
| 2026-04-21 05:00 | 39.70019 | -105.02704 | 16108 ft | 344 kts | 252° |
| 2026-04-21 05:00 | 39.68552 | -105.08673 | 17672 ft | 351 kts | 251° |
| 2026-04-21 05:01 | 39.67809 | -105.11695 | 18407 ft | 355 kts | 251° |
| 2026-04-21 05:01 | 39.67053 | -105.14766 | 19026 ft | 359 kts | 252° |
| 2026-04-21 05:01 | 39.66289 | -105.17867 | 19705 ft | 360 kts | 252° |
| 2026-04-21 05:01 | 39.65520 | -105.20980 | 20334 ft | 364 kts | 252° |
| 2026-04-21 05:02 | 39.64745 | -105.24111 | 20958 ft | 367 kts | 253° |
| 2026-04-21 05:02 | 39.63960 | -105.27279 | 21602 ft | 369 kts | 253° |
| 2026-04-21 05:02 | 39.63170 | -105.30466 | 22231 ft | 372 kts | 253° |
| 2026-04-21 05:02 | 39.62372 | -105.33677 | 22837 ft | 375 kts | 254° |
| 2026-04-21 05:03 | 39.61569 | -105.36907 | 23456 ft | 378 kts | 254° |
| 2026-04-21 05:03 | 39.60757 | -105.40168 | 23953 ft | 381 kts | 254° |
| 2026-04-21 05:03 | 39.59937 | -105.43456 | 24428 ft | 385 kts | 254° |
| 2026-04-21 05:03 | 39.59111 | -105.46764 | 24900 ft | 388 kts | 254° |
| 2026-04-21 05:04 | 39.58274 | -105.50111 | 25406 ft | 391 kts | 254° |
| 2026-04-21 05:04 | 39.57430 | -105.53482 | 25835 ft | 394 kts | 255° |
| 2026-04-21 05:04 | 39.56579 | -105.56875 | 26293 ft | 397 kts | 255° |
| 2026-04-21 05:04 | 39.55721 | -105.60293 | 26723 ft | 401 kts | 255° |
| 2026-04-21 05:05 | 39.54790 | -105.63716 | 27168 ft | 404 kts | 253° |
| 2026-04-21 05:05 | 39.53833 | -105.67159 | 27621 ft | 407 kts | 253° |
| 2026-04-21 05:05 | 39.52876 | -105.70616 | 28048 ft | 410 kts | 253° |
| 2026-04-21 05:05 | 39.51911 | -105.74107 | 28455 ft | 413 kts | 253° |
| 2026-04-21 05:06 | 39.50937 | -105.77627 | 28861 ft | 416 kts | 253° |
| 2026-04-21 05:06 | 39.49959 | -105.81157 | 29265 ft | 419 kts | 253° |
| 2026-04-21 05:06 | 39.48971 | -105.84719 | 29651 ft | 422 kts | 253° |
| 2026-04-21 05:06 | 39.47974 | -105.88309 | 30048 ft | 424 kts | 253° |
| 2026-04-21 05:07 | 39.46968 | -105.91924 | 30392 ft | 427 kts | 253° |
| 2026-04-21 05:07 | 39.45957 | -105.95550 | 30708 ft | 430 kts | 253° |
| 2026-04-21 05:07 | 39.44939 | -105.99203 | 31014 ft | 433 kts | 253° |
| 2026-04-21 05:07 | 39.43908 | -106.02894 | 31356 ft | 435 kts | 253° |
| 2026-04-21 05:08 | 39.42875 | -106.06585 | 31686 ft | 438 kts | 253° |
| 2026-04-21 05:08 | 39.41835 | -106.10300 | 31950 ft | 441 kts | 253° |
| 2026-04-21 05:08 | 39.40797 | -106.13996 | 32255 ft | 443 kts | 253° |
| 2026-04-21 05:08 | 39.39740 | -106.17760 | 32555 ft | 447 kts | 253° |
| 2026-04-21 05:09 | 39.38661 | -106.21583 | 32852 ft | 450 kts | 253° |
| 2026-04-21 05:09 | 39.37584 | -106.25393 | 33133 ft | 453 kts | 253° |
| 2026-04-21 05:09 | 39.36499 | -106.29224 | 33670 ft | 456 kts | 253° |
| 2026-04-21 05:09 | 39.35406 | -106.33083 | 33959 ft | 458 kts | 253° |
| 2026-04-21 05:10 | 39.34320 | -106.36910 | 34238 ft | 461 kts | 253° |
| 2026-04-21 05:10 | 39.33211 | -106.40808 | 34539 ft | 462 kts | 253° |
| 2026-04-21 05:10 | 39.32103 | -106.44702 | 34869 ft | 462 kts | 253° |
| 2026-04-21 05:10 | 39.30995 | -106.48587 | 35196 ft | 462 kts | 253° |
| 2026-04-21 05:11 | 39.29880 | -106.52492 | 35515 ft | 461 kts | 252° |
| 2026-04-21 05:11 | 39.28769 | -106.56381 | 35781 ft | 461 kts | 252° |
| 2026-04-21 05:11 | 39.27663 | -106.60243 | 36033 ft | 460 kts | 252° |
| 2026-04-21 05:11 | 39.26553 | -106.64114 | 36307 ft | 461 kts | 252° |
| 2026-04-21 05:12 | 39.25431 | -106.68021 | 36613 ft | 461 kts | 252° |
| 2026-04-21 05:12 | 39.24191 | -106.71835 | 36910 ft | 463 kts | 242° |
| 2026-04-21 05:12 | 39.22348 | -106.75242 | 37332 ft | 462 kts | 235° |
| 2026-04-21 05:12 | 39.20462 | -106.78598 | 37524 ft | 462 kts | 236° |
| 2026-04-21 05:13 | 39.18559 | -106.81954 | 37807 ft | 462 kts | 235° |
| 2026-04-21 05:13 | 39.16648 | -106.85282 | 38078 ft | 462 kts | 235° |
| 2026-04-21 05:13 | 39.12801 | -106.91938 | 38069 ft | 462 kts | 234° |
| 2026-04-21 05:14 | 39.08997 | -106.98502 | 38069 ft | 460 kts | 234° |
| 2026-04-21 05:14 | 39.05161 | -107.05104 | 38045 ft | 460 kts | 234° |
| 2026-04-21 05:15 | 39.01337 | -107.11674 | 38067 ft | 457 kts | 234° |
| 2026-04-21 05:15 | 38.97516 | -107.18225 | 38046 ft | 459 kts | 234° |
| 2026-04-21 05:16 | 38.93684 | -107.24781 | 38065 ft | 459 kts | 234° |
| 2026-04-21 05:16 | 38.89852 | -107.31325 | 38069 ft | 458 kts | 234° |
| 2026-04-21 05:17 | 38.86014 | -107.37865 | 38037 ft | 459 kts | 234° |
| 2026-04-21 05:17 | 38.82170 | -107.44401 | 38032 ft | 457 kts | 234° |
| 2026-04-21 05:18 | 38.78341 | -107.50901 | 38028 ft | 457 kts | 234° |
| 2026-04-21 05:18 | 38.74498 | -107.57411 | 38028 ft | 457 kts | 234° |
| 2026-04-21 05:19 | 38.70654 | -107.63907 | 38016 ft | 457 kts | 234° |
| 2026-04-21 05:19 | 38.66811 | -107.70390 | 38016 ft | 457 kts | 234° |
| 2026-04-21 05:20 | 38.62964 | -107.76866 | 38005 ft | 457 kts | 234° |
| 2026-04-21 05:20 | 38.59113 | -107.83338 | 38183 ft | 456 kts | 233° |
| 2026-04-21 05:21 | 38.55270 | -107.89782 | 38184 ft | 456 kts | 233° |
| 2026-04-21 05:21 | 38.51414 | -107.96234 | 38184 ft | 456 kts | 233° |
| 2026-04-21 05:22 | 38.47559 | -108.02672 | 38172 ft | 456 kts | 233° |
| 2026-04-21 05:22 | 38.43703 | -108.09100 | 38133 ft | 456 kts | 233° |
| 2026-04-21 05:23 | 38.39869 | -108.15479 | 38102 ft | 456 kts | 233° |
| 2026-04-21 05:23 | 38.35981 | -108.21934 | 38054 ft | 456 kts | 233° |
| 2026-04-21 05:24 | 38.32137 | -108.28303 | 38022 ft | 457 kts | 233° |
| 2026-04-21 05:24 | 38.28259 | -108.34718 | 38036 ft | 457 kts | 233° |
| 2026-04-21 05:25 | 38.24385 | -108.41110 | 38036 ft | 457 kts | 233° |
| 2026-04-21 05:25 | 38.20507 | -108.47500 | 38024 ft | 454 kts | 233° |
| 2026-04-21 05:26 | 38.17298 | -108.52776 | 38036 ft | 454 kts | 233° |
| 2026-04-21 05:26 | 38.13437 | -108.59114 | 38018 ft | 454 kts | 233° |
| 2026-04-21 05:27 | 38.09538 | -108.65501 | 38019 ft | 454 kts | 233° |
| 2026-04-21 05:27 | 38.05694 | -108.71787 | 38006 ft | 454 kts | 233° |
| 2026-04-21 05:28 | 38.01817 | -108.78114 | 38002 ft | 454 kts | 233° |
| 2026-04-21 05:28 | 37.97944 | -108.84423 | 38010 ft | 452 kts | 232° |
| 2026-04-21 05:29 | 37.94074 | -108.90713 | 38007 ft | 452 kts | 233° |
| 2026-04-21 05:29 | 37.90204 | -108.96993 | 38018 ft | 452 kts | 233° |
| 2026-04-21 05:30 | 37.86351 | -109.03233 | 38016 ft | 452 kts | 232° |
| 2026-04-21 05:30 | 37.82452 | -109.09533 | 38020 ft | 452 kts | 232° |
| 2026-04-21 05:31 | 37.78600 | -109.15748 | 38026 ft | 450 kts | 232° |
| 2026-04-21 05:31 | 37.74751 | -109.21946 | 38057 ft | 448 kts | 232° |
| 2026-04-21 05:32 | 37.70898 | -109.28140 | 38091 ft | 448 kts | 232° |
| 2026-04-21 05:32 | 37.67046 | -109.34320 | 38126 ft | 448 kts | 232° |
| 2026-04-21 05:33 | 37.63180 | -109.40509 | 38156 ft | 448 kts | 232° |
| 2026-04-21 05:33 | 37.59313 | -109.46688 | 38148 ft | 448 kts | 232° |
| 2026-04-21 05:34 | 37.55465 | -109.52828 | 38151 ft | 444 kts | 232° |
| 2026-04-21 05:34 | 37.51633 | -109.58929 | 38146 ft | 444 kts | 232° |
| 2026-04-21 05:35 | 37.47791 | -109.65035 | 38108 ft | 444 kts | 232° |
| 2026-04-21 05:35 | 37.43972 | -109.71095 | 37977 ft | 444 kts | 232° |
| 2026-04-21 05:36 | 37.40126 | -109.77184 | 37986 ft | 444 kts | 232° |
| 2026-04-21 05:36 | 37.36283 | -109.83257 | 37978 ft | 443 kts | 232° |
| 2026-04-21 05:37 | 37.32455 | -109.89297 | 37973 ft | 441 kts | 232° |
| 2026-04-21 05:37 | 37.28634 | -109.95315 | 37970 ft | 441 kts | 232° |
| 2026-04-21 05:38 | 37.24800 | -110.01342 | 37972 ft | 441 kts | 231° |
| 2026-04-21 05:38 | 37.20977 | -110.07340 | 37962 ft | 441 kts | 231° |
| 2026-04-21 05:39 | 37.17136 | -110.13357 | 37963 ft | 441 kts | 231° |
| 2026-04-21 05:39 | 37.13313 | -110.19333 | 37958 ft | 438 kts | 231° |
| 2026-04-21 05:40 | 37.09501 | -110.25283 | 37957 ft | 438 kts | 231° |
| 2026-04-21 05:40 | 37.05683 | -110.31232 | 37956 ft | 438 kts | 231° |
| 2026-04-21 05:41 | 37.01862 | -110.37173 | 37953 ft | 438 kts | 231° |
| 2026-04-21 05:41 | 36.98034 | -110.43116 | 37954 ft | 438 kts | 231° |
| 2026-04-21 05:42 | 36.94212 | -110.49038 | 37961 ft | 437 kts | 231° |
| 2026-04-21 05:42 | 36.90388 | -110.54953 | 37946 ft | 436 kts | 231° |
| 2026-04-21 05:43 | 36.86593 | -110.60813 | 37937 ft | 437 kts | 231° |
| 2026-04-21 05:43 | 36.82772 | -110.66704 | 37946 ft | 437 kts | 231° |
| 2026-04-21 05:44 | 36.78939 | -110.72602 | 37934 ft | 437 kts | 231° |
| 2026-04-21 05:44 | 36.75102 | -110.78494 | 37925 ft | 437 kts | 230° |
| 2026-04-21 05:45 | 36.71277 | -110.84359 | 37929 ft | 434 kts | 230° |
| 2026-04-21 05:45 | 36.67482 | -110.90169 | 37943 ft | 432 kts | 230° |
| 2026-04-21 05:46 | 36.63679 | -110.95979 | 37929 ft | 432 kts | 230° |
| 2026-04-21 05:46 | 36.59885 | -111.01768 | 37917 ft | 432 kts | 230° |
| 2026-04-21 05:47 | 36.56075 | -111.07569 | 37910 ft | 432 kts | 230° |
| 2026-04-21 05:47 | 36.52294 | -111.13315 | 37930 ft | 432 kts | 230° |
| 2026-04-21 05:48 | 36.48468 | -111.19122 | 37925 ft | 429 kts | 230° |
| 2026-04-21 05:48 | 36.44709 | -111.24817 | 37942 ft | 429 kts | 230° |
| 2026-04-21 05:49 | 36.40898 | -111.30580 | 37941 ft | 429 kts | 230° |
| 2026-04-21 05:49 | 36.37111 | -111.36299 | 37933 ft | 429 kts | 230° |
| 2026-04-21 05:50 | 36.33345 | -111.41978 | 37961 ft | 429 kts | 230° |
| 2026-04-21 05:50 | 36.29555 | -111.47684 | 37947 ft | 429 kts | 230° |
| 2026-04-21 05:51 | 36.25759 | -111.53390 | 37956 ft | 429 kts | 230° |
| 2026-04-21 05:51 | 36.21966 | -111.59081 | 37962 ft | 429 kts | 230° |
| 2026-04-21 05:52 | 36.20084 | -111.61901 | 37962 ft | 417 kts | 230° |
| 2026-04-21 05:52 | 36.18254 | -111.64643 | 37987 ft | 414 kts | 230° |
| 2026-04-21 05:52 | 36.14538 | -111.70200 | 37988 ft | 423 kts | 229° |
| 2026-04-21 05:53 | 36.10750 | -111.75856 | 37974 ft | 429 kts | 229° |
| 2026-04-21 05:53 | 36.07138 | -111.81707 | 38031 ft | 429 kts | 242° |
| 2026-04-21 05:54 | 36.04871 | -111.88519 | 38103 ft | 429 kts | 246° |
| 2026-04-21 05:54 | 36.02657 | -111.95369 | 38158 ft | 430 kts | 246° |
| 2026-04-21 05:55 | 36.00455 | -112.02232 | 38232 ft | 430 kts | 246° |
| 2026-04-21 05:55 | 35.98253 | -112.09086 | 38258 ft | 429 kts | 246° |
| 2026-04-21 05:56 | 35.96047 | -112.15935 | 38269 ft | 428 kts | 246° |
| 2026-04-21 05:56 | 35.93857 | -112.22722 | 38260 ft | 425 kts | 246° |
| 2026-04-21 05:57 | 35.91665 | -112.29499 | 38217 ft | 425 kts | 246° |
| 2026-04-21 05:57 | 35.89468 | -112.36277 | 38165 ft | 425 kts | 246° |
| 2026-04-21 05:58 | 35.87269 | -112.43042 | 38119 ft | 425 kts | 246° |
| 2026-04-21 05:58 | 35.85070 | -112.49794 | 38016 ft | 423 kts | 246° |
| 2026-04-21 05:59 | 35.82874 | -112.56520 | 38033 ft | 422 kts | 246° |
| 2026-04-21 06:00 | 35.79578 | -112.66589 | 38008 ft | 422 kts | 246° |
| 2026-04-21 06:00 | 35.77389 | -112.73257 | 37996 ft | 422 kts | 246° |
| 2026-04-21 06:01 | 35.75189 | -112.79945 | 38027 ft | 421 kts | 246° |
| 2026-04-21 06:01 | 35.72992 | -112.86606 | 37988 ft | 419 kts | 246° |
| 2026-04-21 06:02 | 35.70795 | -112.93253 | 37991 ft | 419 kts | 246° |
| 2026-04-21 06:02 | 35.68595 | -112.99898 | 37982 ft | 419 kts | 246° |
| 2026-04-21 06:03 | 35.66392 | -113.06531 | 37965 ft | 419 kts | 247° |
| 2026-04-21 06:03 | 35.64187 | -113.13163 | 37969 ft | 418 kts | 246° |
| 2026-04-21 06:04 | 35.61988 | -113.19765 | 37962 ft | 417 kts | 246° |
| 2026-04-21 06:04 | 35.59786 | -113.26354 | 37953 ft | 417 kts | 246° |
| 2026-04-21 06:05 | 35.57579 | -113.32951 | 37955 ft | 417 kts | 246° |
| 2026-04-21 06:05 | 35.55366 | -113.39550 | 37943 ft | 417 kts | 246° |
| 2026-04-21 06:06 | 35.53525 | -113.45030 | 37940 ft | 418 kts | 245° |
| 2026-04-21 06:06 | 35.51298 | -113.51648 | 37940 ft | 420 kts | 245° |
| 2026-04-21 06:07 | 35.49064 | -113.58273 | 37933 ft | 420 kts | 245° |
| 2026-04-21 06:07 | 35.46826 | -113.64893 | 37942 ft | 420 kts | 245° |
| 2026-04-21 06:08 | 35.44588 | -113.71500 | 37970 ft | 419 kts | 245° |
| 2026-04-21 06:08 | 35.42346 | -113.78103 | 37997 ft | 420 kts | 245° |
| 2026-04-21 06:09 | 35.40097 | -113.84714 | 38026 ft | 420 kts | 245° |
| 2026-04-21 06:09 | 35.37842 | -113.91328 | 38045 ft | 420 kts | 245° |
| 2026-04-21 06:10 | 35.35586 | -113.97928 | 38052 ft | 420 kts | 245° |
| 2026-04-21 06:10 | 35.33324 | -114.04536 | 38047 ft | 420 kts | 245° |
| 2026-04-21 06:11 | 35.31057 | -114.11142 | 38033 ft | 421 kts | 244° |
| 2026-04-21 06:11 | 35.28790 | -114.17733 | 37997 ft | 421 kts | 244° |
| 2026-04-21 06:12 | 35.26513 | -114.24341 | 37959 ft | 421 kts | 244° |
| 2026-04-21 06:12 | 35.24245 | -114.30907 | 37916 ft | 421 kts | 244° |
| 2026-04-21 06:13 | 35.21961 | -114.37505 | 37880 ft | 421 kts | 244° |
| 2026-04-21 06:13 | 35.19677 | -114.44092 | 37879 ft | 420 kts | 244° |
| 2026-04-21 06:14 | 35.17387 | -114.50679 | 37878 ft | 420 kts | 244° |
| 2026-04-21 06:14 | 35.15100 | -114.57251 | 37904 ft | 420 kts | 244° |
| 2026-04-21 06:15 | 35.12815 | -114.63818 | 37909 ft | 420 kts | 244° |
| 2026-04-21 06:15 | 35.10534 | -114.70383 | 37905 ft | 420 kts | 244° |
| 2026-04-21 06:16 | 35.08243 | -114.76963 | 37906 ft | 420 kts | 244° |
| 2026-04-21 06:16 | 35.05968 | -114.83485 | 37893 ft | 420 kts | 244° |
| 2026-04-21 06:17 | 35.03641 | -114.90078 | 37899 ft | 419 kts | 240° |
| 2026-04-21 06:17 | 35.00900 | -114.96295 | 37906 ft | 419 kts | 239° |
| 2026-04-21 06:18 | 34.98176 | -115.02584 | 37937 ft | 419 kts | 240° |
| 2026-04-21 06:18 | 34.95467 | -115.08863 | 37917 ft | 418 kts | 240° |
| 2026-04-21 06:19 | 34.92756 | -115.15137 | 37927 ft | 418 kts | 240° |
| 2026-04-21 06:19 | 34.90044 | -115.21406 | 37933 ft | 418 kts | 240° |
| 2026-04-21 06:20 | 34.87320 | -115.27688 | 37943 ft | 418 kts | 239° |
| 2026-04-21 06:20 | 34.84620 | -115.33905 | 37936 ft | 418 kts | 239° |
| 2026-04-21 06:21 | 34.81903 | -115.40148 | 37929 ft | 417 kts | 239° |
| 2026-04-21 06:21 | 34.79238 | -115.46426 | 37924 ft | 418 kts | 244° |
| 2026-04-21 06:22 | 34.76895 | -115.52913 | 37929 ft | 419 kts | 243° |
| 2026-04-21 06:22 | 34.74508 | -115.59373 | 37933 ft | 418 kts | 243° |
| 2026-04-21 06:23 | 34.72116 | -115.65818 | 37948 ft | 418 kts | 243° |
| 2026-04-21 06:23 | 34.69729 | -115.72230 | 37930 ft | 415 kts | 243° |
| 2026-04-21 06:24 | 34.67346 | -115.78622 | 37933 ft | 416 kts | 243° |
| 2026-04-21 06:24 | 34.64955 | -115.85022 | 37924 ft | 416 kts | 243° |
| 2026-04-21 06:25 | 34.62582 | -115.91423 | 37937 ft | 416 kts | 243° |
| 2026-04-21 06:25 | 34.60223 | -115.97830 | 37945 ft | 415 kts | 243° |
| 2026-04-21 06:26 | 34.57881 | -116.04174 | 37934 ft | 414 kts | 243° |
| 2026-04-21 06:26 | 34.55507 | -116.10591 | 37937 ft | 414 kts | 243° |
| 2026-04-21 06:27 | 34.53162 | -116.16919 | 37933 ft | 414 kts | 243° |
| 2026-04-21 06:27 | 34.50793 | -116.23295 | 37937 ft | 415 kts | 243° |
| 2026-04-21 06:28 | 34.48419 | -116.29676 | 37940 ft | 415 kts | 243° |
| 2026-04-21 06:28 | 34.46042 | -116.36054 | 37100 ft | 415 kts | 243° |
| 2026-04-21 06:28 | 34.44854 | -116.39237 | 36314 ft | 417 kts | 243° |
| 2026-04-21 06:29 | 34.43660 | -116.42431 | 35638 ft | 417 kts | 243° |
| 2026-04-21 06:29 | 34.42463 | -116.45631 | 35004 ft | 417 kts | 243° |
| 2026-04-21 06:29 | 34.41194 | -116.48834 | 34271 ft | 424 kts | 241° |
| 2026-04-21 06:29 | 34.39878 | -116.52020 | 33402 ft | 427 kts | 242° |
| 2026-04-21 06:30 | 34.38550 | -116.55260 | 32608 ft | 428 kts | 242° |
| 2026-04-21 06:30 | 34.37226 | -116.58494 | 31943 ft | 427 kts | 242° |
| 2026-04-21 06:30 | 34.35911 | -116.61703 | 31256 ft | 426 kts | 242° |
| 2026-04-21 06:30 | 34.34595 | -116.64916 | 30478 ft | 427 kts | 242° |
| 2026-04-21 06:31 | 34.33279 | -116.68153 | 29581 ft | 430 kts | 243° |
| 2026-04-21 06:31 | 34.31971 | -116.71414 | 28839 ft | 428 kts | 243° |
| 2026-04-21 06:31 | 34.30679 | -116.74624 | 28340 ft | 421 kts | 242° |
| 2026-04-21 06:31 | 34.29402 | -116.77793 | 27756 ft | 417 kts | 242° |
| 2026-04-21 06:32 | 34.28133 | -116.80939 | 27144 ft | 414 kts | 242° |
| 2026-04-21 06:32 | 34.26876 | -116.84054 | 26522 ft | 412 kts | 242° |
| 2026-04-21 06:32 | 34.25620 | -116.87162 | 25940 ft | 410 kts | 241° |
| 2026-04-21 06:32 | 34.24370 | -116.90250 | 25342 ft | 408 kts | 241° |
| 2026-04-21 06:33 | 34.23124 | -116.93332 | 24708 ft | 407 kts | 240° |
| 2026-04-21 06:33 | 34.21882 | -116.96396 | 24118 ft | 406 kts | 240° |
| 2026-04-21 06:33 | 34.20767 | -116.99537 | 23446 ft | 410 kts | 248° |
| 2026-04-21 06:33 | 34.19896 | -117.02814 | 22698 ft | 405 kts | 248° |
| 2026-04-21 06:34 | 34.19037 | -117.05994 | 22150 ft | 390 kts | 248° |
| 2026-04-21 06:34 | 34.18208 | -117.09055 | 21582 ft | 378 kts | 248° |
| 2026-04-21 06:34 | 34.17402 | -117.12030 | 21036 ft | 370 kts | 248° |
| 2026-04-21 06:34 | 34.16600 | -117.14976 | 20471 ft | 369 kts | 248° |
| 2026-04-21 06:35 | 34.15798 | -117.17898 | 19867 ft | 365 kts | 248° |
| 2026-04-21 06:35 | 34.15004 | -117.20789 | 19430 ft | 361 kts | 248° |
| 2026-04-21 06:35 | 34.14216 | -117.23656 | 18906 ft | 357 kts | 248° |
| 2026-04-21 06:35 | 34.13438 | -117.26483 | 18377 ft | 354 kts | 248° |
| 2026-04-21 06:36 | 34.12663 | -117.29298 | 17783 ft | 351 kts | 248° |
| 2026-04-21 06:36 | 34.11897 | -117.32076 | 17244 ft | 348 kts | 248° |
| 2026-04-21 06:36 | 34.11135 | -117.34839 | 16716 ft | 345 kts | 248° |
| 2026-04-21 06:36 | 34.10405 | -117.37583 | 16153 ft | 343 kts | 250° |
| 2026-04-21 06:37 | 34.09718 | -117.40335 | 15633 ft | 340 kts | 250° |
| 2026-04-21 06:37 | 34.09035 | -117.43052 | 15147 ft | 338 kts | 250° |
| 2026-04-21 06:37 | 34.08354 | -117.45751 | 14631 ft | 332 kts | 250° |
| 2026-04-21 06:37 | 34.07688 | -117.48383 | 14184 ft | 323 kts | 250° |
| 2026-04-21 06:38 | 34.06937 | -117.50879 | 13680 ft | 312 kts | 243° |
| 2026-04-21 06:38 | 34.06051 | -117.53277 | 13214 ft | 312 kts | 243° |
| 2026-04-21 06:38 | 34.05185 | -117.55666 | 12858 ft | 312 kts | 243° |
| 2026-04-21 06:38 | 34.04323 | -117.58067 | 12488 ft | 311 kts | 244° |
| 2026-04-21 06:39 | 34.03472 | -117.60454 | 12117 ft | 309 kts | 244° |
| 2026-04-21 06:39 | 34.02627 | -117.62831 | 11739 ft | 307 kts | 244° |
| 2026-04-21 06:39 | 34.01789 | -117.65190 | 11394 ft | 305 kts | 244° |
| 2026-04-21 06:39 | 34.00962 | -117.67529 | 11026 ft | 303 kts | 245° |
| 2026-04-21 06:40 | 34.00502 | -117.70022 | 10608 ft | 305 kts | 260° |
| 2026-04-21 06:40 | 34.00277 | -117.72510 | 10247 ft | 293 kts | 259° |
| 2026-04-21 06:40 | 34.00045 | -117.74897 | 9877 ft | 282 kts | 259° |
| 2026-04-21 06:40 | 33.99819 | -117.77213 | 9484 ft | 273 kts | 259° |
| 2026-04-21 06:41 | 33.99603 | -117.79419 | 9143 ft | 267 kts | 259° |
| 2026-04-21 06:41 | 33.99385 | -117.81646 | 8832 ft | 267 kts | 259° |
| 2026-04-21 06:41 | 33.99170 | -117.83865 | 8501 ft | 267 kts | 259° |
| 2026-04-21 06:41 | 33.98952 | -117.86108 | 8162 ft | 265 kts | 260° |
| 2026-04-21 06:42 | 33.98737 | -117.88317 | 7855 ft | 265 kts | 260° |
| 2026-04-21 06:42 | 33.98522 | -117.90509 | 7543 ft | 261 kts | 260° |
| 2026-04-21 06:42 | 33.98328 | -117.92652 | 7195 ft | 254 kts | 262° |
| 2026-04-21 06:42 | 33.98163 | -117.94717 | 6993 ft | 240 kts | 261° |
| 2026-04-21 06:43 | 33.97985 | -117.96690 | 6773 ft | 235 kts | 261° |
| 2026-04-21 06:43 | 33.97795 | -117.98652 | 6474 ft | 235 kts | 261° |
| 2026-04-21 06:43 | 33.97602 | -118.00586 | 6177 ft | 236 kts | 261° |
| 2026-04-21 06:43 | 33.97404 | -118.02551 | 5869 ft | 237 kts | 261° |
| 2026-04-21 06:44 | 33.97203 | -118.04528 | 5554 ft | 238 kts | 261° |
| 2026-04-21 06:44 | 33.96997 | -118.06541 | 5240 ft | 239 kts | 262° |
| 2026-04-21 06:44 | 33.96795 | -118.08507 | 4930 ft | 240 kts | 262° |
| 2026-04-21 06:44 | 33.96590 | -118.10514 | 4606 ft | 241 kts | 262° |
| 2026-04-21 06:45 | 33.96383 | -118.12522 | 4283 ft | 242 kts | 262° |
| 2026-04-21 06:45 | 33.96176 | -118.14543 | 3959 ft | 243 kts | 262° |
| 2026-04-21 06:45 | 33.95967 | -118.16579 | 3636 ft | 244 kts | 262° |
| 2026-04-21 06:45 | 33.95758 | -118.18613 | 3319 ft | 246 kts | 262° |
| 2026-04-21 06:46 | 33.95548 | -118.20661 | 2986 ft | 247 kts | 262° |
| 2026-04-21 06:46 | 33.95337 | -118.22708 | 2663 ft | 245 kts | 263° |
| 2026-04-21 06:46 | 33.95202 | -118.24034 | 2447 ft | 233 kts | 263° |
| 2026-04-21 06:46 | 33.94951 | -118.26470 | 2082 ft | 205 kts | 263° |
| 2026-04-21 06:47 | 33.94840 | -118.27552 | 1947 ft | 187 kts | 262° |
| 2026-04-21 06:47 | 33.94690 | -118.29016 | 1701 ft | 165 kts | 262° |
| 2026-04-21 06:47 | 33.94557 | -118.30301 | 1471 ft | 147 kts | 262° |
| 2026-04-21 06:47 | 33.94436 | -118.31482 | 1254 ft | 141 kts | 262° |
| 2026-04-21 06:48 | 33.94318 | -118.32648 | 1056 ft | 139 kts | 262° |
| 2026-04-21 06:48 | 33.94209 | -118.33797 | 856 ft | 138 kts | 263° |
| 2026-04-21 06:48 | 33.94074 | -118.34934 | 659 ft | 137 kts | 261° |
| 2026-04-21 06:48 | 33.93928 | -118.36064 | 434 ft | 136 kts | 263° |
| 2026-04-21 06:49 | 33.93845 | -118.37198 | 293 ft | 136 kts | 263° |
| 2026-04-21 06:49 | 33.93733 | -118.38299 | 135 ft | 133 kts | 261° |
| 2026-04-21 06:49 | 33.93626 | -118.39312 | 96 ft | 110 kts | 263° |
| 2026-04-21 06:49 | 33.93546 | -118.40116 | 99 ft | 77 kts | 263° |
| 2026-04-21 06:50 | 33.93493 | -118.40676 | 96 ft | 57 kts | 263° |
| 2026-04-21 06:50 | 33.93497 | -118.41044 | 99 ft | 15 kts | 281° |
| 2026-04-21 06:50 | 33.93524 | -118.41135 | 96 ft | 8 kts | 292° |
| 2026-04-21 06:50 | 33.93542 | -118.41213 | 97 ft | 11 kts | 278° |
| 2026-04-21 06:51 | 33.93576 | -118.41258 | 98 ft | 4 kts | 346° |
| 2026-04-21 06:51 | 33.93609 | -118.41264 | 98 ft | 9 kts | 353° |
| 2026-04-21 06:51 | 33.93701 | -118.41275 | 98 ft | 16 kts | 353° |
| 2026-04-21 06:51 | 33.93738 | -118.41380 | 98 ft | 16 kts | 260° |
| 2026-04-21 06:52 | 33.93752 | -118.41484 | 97 ft | 3 kts | 329° |
| 2026-04-21 06:52 | 33.93723 | -118.41467 | 97 ft | 0 kts | 342° |
| 2026-04-21 06:52 | 33.93729 | -118.41474 | 97 ft | 2 kts | 290° |
| 2026-04-21 06:53 | 33.93727 | -118.41491 | 99 ft | 6 kts | 264° |
| 2026-04-21 06:53 | 33.93718 | -118.41595 | 98 ft | 19 kts | 261° |
| 2026-04-21 06:53 | 33.93766 | -118.41700 | 99 ft | 12 kts | 3° |
| 2026-04-21 06:53 | 33.93873 | -118.41705 | 96 ft | 18 kts | 353° |
| 2026-04-21 06:54 | 33.94006 | -118.41724 | 97 ft | 21 kts | 353° |
| 2026-04-21 06:54 | 33.94160 | -118.41748 | 95 ft | 24 kts | 353° |
| 2026-04-21 06:54 | 33.94329 | -118.41773 | 96 ft | 26 kts | 353° |
| 2026-04-21 06:54 | 33.94519 | -118.41800 | 96 ft | 25 kts | 352° |
| 2026-04-21 06:55 | 33.94601 | -118.41812 | 96 ft | 4 kts | 3° |
| 2026-04-21 06:55 | 33.94640 | -118.41774 | 95 ft | 11 kts | 67° |
| 2026-04-21 06:55 | 33.94654 | -118.41668 | 95 ft | 14 kts | 84° |
| 2026-04-21 06:55 | 33.94666 | -118.41527 | 97 ft | 22 kts | 81° |
| 2026-04-21 06:56 | 33.94684 | -118.41347 | 97 ft | 16 kts | 81° |
| 2026-04-21 06:56 | 33.94736 | -118.41290 | 96 ft | 9 kts | 359° |
| 2026-04-21 06:56 | 33.94798 | -118.41241 | 97 ft | 16 kts | 83° |
| 2026-04-21 06:56 | 33.94816 | -118.41055 | 99 ft | 26 kts | 83° |
| 2026-04-21 06:57 | 33.94839 | -118.40823 | 97 ft | 29 kts | 82° |
| 2026-04-21 06:57 | 33.94867 | -118.40572 | 97 ft | 31 kts | 83° |
| 2026-04-21 06:57 | 33.94885 | -118.40377 | 96 ft | 7 kts | 82° |
| 2026-04-21 06:57 | 33.94887 | -118.40358 | 96 ft | 0 kts | 82° |
| 2026-04-21 06:58 | 33.94885 | -118.40318 | 96 ft | 13 kts | 109° |
| 2026-04-21 06:58 | 33.94830 | -118.40281 | 95 ft | 10 kts | 171° |
| 2026-04-21 06:58 | 33.94812 | -118.40274 | 96 ft | 0 kts | 162° |
| 2026-04-21 06:59 | 33.94786 | -118.40266 | 96 ft | 9 kts | 168° |
| 2026-04-21 06:59 | 33.94724 | -118.40243 | 96 ft | 9 kts | 123° |
| 2026-04-21 06:59 | 33.94721 | -118.40205 | 95 ft | 0 kts | 83° |
| 2026-04-21 06:59 | 33.94722 | -118.40204 | 95 ft | 0 kts | 83° |
| 2026-04-21 07:00 | 33.94722 | -118.40199 | 95 ft | 1 kts | 84° |
| 2026-04-21 07:00 | 33.94723 | -118.40190 | 95 ft | 1 kts | 84° |
| 2026-04-21 07:00 | 33.94723 | -118.40186 | 95 ft | 0 kts | 84° |
| 2026-04-21 07:00 | 33.94723 | -118.40185 | 95 ft | 0 kts | 84° |